Time;durP1;ratioP1;P1;durP2;ratioP2;P2;SDS_P1;SDS_P2;PMS_P1;PMS_P2;Temp;Humidity;BMP_temperature;BMP_pressure;BME280_temperature;BME280_humidity;BME280_pressure;Samples;Min_cycle;Max_cycle;Signal;HPM_P1;HPM_P2
2022/11/20 00:00:56;;;;;;;;;;;8.80;83.70;;;;;;5130872;28;20013;-89
2022/11/20 00:03:21;;;;;;;;;;;8.80;83.10;;;;;;5130734;28;19958;-89
2022/11/20 00:05:47;;;;;;;;;;;8.80;83.30;;;;;;5112331;28;19945;-89
2022/11/20 00:08:12;;;;;;;;;;;8.80;83.60;;;;;;5130699;28;19939;-89
2022/11/20 00:10:39;;;;;;;;;;;8.70;83.50;;;;;;5130682;28;19985;-89
2022/11/20 00:13:04;;;;;;;;;;;8.70;83.40;;;;;;5130869;28;19942;-89
2022/11/20 00:15:30;;;;;;;;;;;8.70;83.20;;;;;;5130572;28;20393;-89
2022/11/20 00:17:56;;;;;;;;;;;8.70;83.40;;;;;;5130500;28;19994;-89
2022/11/20 00:20:21;;;;;;;;;;;8.60;83.50;;;;;;5130484;28;19938;-90
2022/11/20 00:22:47;;;;;;;;;;;8.60;83.80;;;;;;5130195;28;19956;-89
2022/11/20 00:25:13;;;;;;;;;;;8.50;84.10;;;;;;5130416;28;19935;-89
2022/11/20 00:27:38;;;;;;;;;;;8.40;84.50;;;;;;5130347;28;20400;-88
2022/11/20 00:30:04;;;;;;;;;;;8.40;84.60;;;;;;5111929;28;19982;-89
2022/11/20 00:32:30;;;;;;;;;;;8.40;85.00;;;;;;5130284;28;19944;-89
2022/11/20 00:34:55;;;;;;;;;;;8.40;85.00;;;;;;5120613;28;19940;-89
2022/11/20 00:37:21;;;;;;;;;;;8.40;85.00;;;;;;5116487;28;19937;-89
2022/11/20 00:39:46;;;;;;;;;;;8.40;84.60;;;;;;5116446;28;19992;-89
2022/11/20 00:42:12;;;;;;;;;;;8.40;84.40;;;;;;5116333;28;19964;-88
2022/11/20 00:44:38;;;;;;;;;;;8.40;84.30;;;;;;5116616;28;19950;-89
2022/11/20 00:47:03;;;;;;;;;;;8.30;84.60;;;;;;5116325;28;19939;-89
2022/11/20 00:49:29;;;;;;;;;;;8.20;85.10;;;;;;5116307;28;19943;-89
2022/11/20 00:51:54;;;;;;;;;;;8.10;85.50;;;;;;5116409;28;19959;-89
2022/11/20 00:54:20;;;;;;;;;;;8.10;85.50;;;;;;5116097;28;20025;-89
2022/11/20 00:56:45;;;;;;;;;;;8.00;85.70;;;;;;5116122;28;19974;-89
2022/11/20 00:59:11;;;;;;;;;;;7.90;85.60;;;;;;5116103;28;19949;-89
2022/11/20 01:01:37;;;;;;;;;;;7.90;85.70;;;;;;5116043;28;19944;-89
2022/11/20 01:04:03;;;;;;;;;;;7.90;85.90;;;;;;5116163;28;19957;-89
2022/11/20 01:06:29;;;;;;;;;;;7.90;85.90;;;;;;5115944;28;19933;-89
2022/11/20 01:08:56;;;;;;;;;;;7.90;86.00;;;;;;5115871;28;19936;-89
2022/11/20 01:11:26;;;;;;;;;;;7.80;85.90;;;;;;5115813;28;20037;-89
2022/11/20 01:13:53;;;;;;;;;;;7.90;85.70;;;;;;5115733;28;20009;-89
2022/11/20 01:16:19;;;;;;;;;;;7.80;85.90;;;;;;5116024;28;19975;-89
2022/11/20 01:18:46;;;;;;;;;;;7.80;85.90;;;;;;5115691;28;19942;-89
2022/11/20 01:21:13;;;;;;;;;;;7.80;86.00;;;;;;5115637;28;19941;-89
2022/11/20 01:23:40;;;;;;;;;;;7.70;86.10;;;;;;5115273;28;19957;-89
2022/11/20 01:26:08;;;;;;;;;;;7.70;86.40;;;;;;5115546;28;20394;-89
2022/11/20 01:28:34;;;;;;;;;;;7.70;86.40;;;;;;5115461;28;19935;-89
2022/11/20 01:31:00;;;;;;;;;;;7.60;86.70;;;;;;5115419;28;19939;-89
2022/11/20 01:33:25;;;;;;;;;;;7.50;86.80;;;;;;5115364;28;20012;-89
2022/11/20 01:35:51;;;;;;;;;;;7.50;86.90;;;;;;5097043;28;19945;-88
2022/11/20 01:38:17;;;;;;;;;;;7.40;87.00;;;;;;5115312;28;19972;-88
2022/11/20 01:40:43;;;;;;;;;;;7.40;87.00;;;;;;5115250;28;19985;-89
2022/11/20 01:43:23;;;;;;;;;;;7.40;87.20;;;;;;5115391;28;20017;-89
2022/11/20 01:46:07;;;;;;;;;;;7.40;87.30;;;;;;5114201;28;19998;-89
2022/11/20 01:48:32;;;;;;;;;;;7.40;87.10;;;;;;5115109;28;19973;-89
2022/11/20 01:50:59;;;;;;;;;;;7.40;86.90;;;;;;5096734;28;19941;-89
2022/11/20 01:53:27;;;;;;;;;;;7.40;87.80;;;;;;5114836;28;20007;-89
2022/11/20 01:55:54;;;;;;;;;;;7.30;88.00;;;;;;5096643;28;19952;-89
2022/11/20 01:58:22;;;;;;;;;;;7.20;88.30;;;;;;5114823;28;20310;-89
2022/11/20 02:00:47;;;;;;;;;;;7.20;88.70;;;;;;5096617;28;19943;-89
2022/11/20 02:03:15;;;;;;;;;;;7.10;88.90;;;;;;5114681;28;19958;-89
2022/11/20 02:06:10;;;;;;;;;;;7.00;89.50;;;;;;5114760;28;20004;-89
2022/11/20 02:08:36;;;;;;;;;;;6.90;89.60;;;;;;5024200;28;19942;-89
2022/11/20 02:11:01;;;;;;;;;;;6.80;89.70;;;;;;5114613;28;19936;-89
2022/11/20 02:13:42;;;;;;;;;;;6.70;90.10;;;;;;5114680;28;19933;-89
2022/11/20 02:16:20;;;;;;;;;;;6.60;90.30;;;;;;5114619;28;19938;-89
2022/11/20 02:18:46;;;;;;;;;;;6.70;90.50;;;;;;5114570;28;19942;-88
2022/11/20 02:21:20;;;;;;;;;;;6.70;90.00;;;;;;5114507;28;19962;-89
2022/11/20 02:24:00;;;;;;;;;;;6.60;89.80;;;;;;5114273;28;20075;-89
2022/11/20 02:26:27;;;;;;;;;;;6.60;89.50;;;;;;5114466;28;19940;-89
2022/11/20 02:28:54;;;;;;;;;;;6.50;89.10;;;;;;5114359;28;19936;-89
2022/11/20 02:31:19;;;;;;;;;;;6.50;88.90;;;;;;5114327;28;20022;-89
2022/11/20 02:33:45;;;;;;;;;;;6.40;89.30;;;;;;5114568;28;19979;-89
2022/11/20 02:36:13;;;;;;;;;;;6.60;89.50;;;;;;5114279;28;20026;-89
2022/11/20 02:38:39;;;;;;;;;;;6.50;89.60;;;;;;5114228;28;20028;-89
2022/11/20 02:41:04;;;;;;;;;;;6.50;89.80;;;;;;5114241;28;19989;-89
2022/11/20 02:43:30;;;;;;;;;;;6.50;90.00;;;;;;5114106;28;20000;-89
2022/11/20 02:45:55;;;;;;;;;;;6.50;89.80;;;;;;5114345;28;19998;-89
2022/11/20 02:48:21;;;;;;;;;;;6.50;89.40;;;;;;5114078;28;19938;-89
2022/11/20 02:50:46;;;;;;;;;;;6.50;89.50;;;;;;5095769;28;19942;-89
2022/11/20 02:53:12;;;;;;;;;;;6.50;89.80;;;;;;5095574;28;20438;-89
2022/11/20 02:55:37;;;;;;;;;;;6.50;89.70;;;;;;5113971;28;20396;-89
2022/11/20 02:58:03;;;;;;;;;;;6.50;89.90;;;;;;5113920;28;20313;-89
2022/11/20 03:00:28;;;;;;;;;;;6.40;89.40;;;;;;5113855;28;20347;-89
2022/11/20 03:02:54;;;;;;;;;;;6.40;89.50;;;;;;5113967;28;20430;-89
2022/11/20 03:05:20;;;;;;;;;;;6.40;89.50;;;;;;5095498;28;20414;-89
2022/11/20 03:07:45;;;;;;;;;;;6.40;89.50;;;;;;5113793;28;20479;-89
2022/11/20 03:10:11;;;;;;;;;;;6.40;89.60;;;;;;5113726;28;20308;-89
2022/11/20 03:12:36;;;;;;;;;;;6.40;90.20;;;;;;5113914;28;19943;-89
2022/11/20 03:15:02;;;;;;;;;;;6.40;90.10;;;;;;5113646;28;19937;-89
2022/11/20 03:17:29;;;;;;;;;;;6.40;90.00;;;;;;5113645;28;20326;-89
2022/11/20 03:19:54;;;;;;;;;;;6.50;90.30;;;;;;5113588;28;19975;-89
2022/11/20 03:22:20;;;;;;;;;;;6.50;90.30;;;;;;5113362;28;19974;-89
2022/11/20 03:24:46;;;;;;;;;;;6.40;90.00;;;;;;5113498;28;20311;-89
2022/11/20 03:27:11;;;;;;;;;;;6.40;89.50;;;;;;5095226;28;20015;-89
2022/11/20 03:29:37;;;;;;;;;;;6.30;88.70;;;;;;5113535;28;19938;-88
2022/11/20 03:32:02;;;;;;;;;;;6.20;88.00;;;;;;5095213;28;19943;-88
2022/11/20 03:34:28;;;;;;;;;;;6.10;86.90;;;;;;5113453;28;20398;-89
2022/11/20 03:36:53;;;;;;;;;;;6.00;85.40;;;;;;5113429;28;19946;-88
2022/11/20 03:39:19;;;;;;;;;;;5.90;85.50;;;;;;5113456;28;20362;-89
2022/11/20 03:41:45;;;;;;;;;;;5.90;85.60;;;;;;5113426;28;20301;-88
2022/11/20 03:44:11;;;;;;;;;;;5.80;85.50;;;;;;5113262;28;20327;-88
2022/11/20 03:46:36;;;;;;;;;;;5.70;86.40;;;;;;5113385;28;19946;-88
2022/11/20 03:49:02;;;;;;;;;;;5.70;87.60;;;;;;5113319;28;20323;-89
2022/11/20 03:51:29;;;;;;;;;;;5.80;88.00;;;;;;5113535;28;19973;-88
2022/11/20 03:53:56;;;;;;;;;;;5.80;88.40;;;;;;5113086;28;19956;-89
2022/11/20 03:56:29;;;;;;;;;;;5.80;88.70;;;;;;5113271;28;20025;-89
2022/11/20 03:58:54;;;;;;;;;;;5.90;88.80;;;;;;5113248;28;19965;-88
2022/11/20 04:01:21;;;;;;;;;;;5.90;88.80;;;;;;5113446;28;19939;-88
2022/11/20 04:03:47;;;;;;;;;;;5.80;88.80;;;;;;5094986;28;19958;-88
2022/11/20 04:06:33;;;;;;;;;;;5.70;88.30;;;;;;5113159;28;19938;-89
2022/11/20 04:08:58;;;;;;;;;;;5.70;88.90;;;;;;5112880;28;19943;-89
2022/11/20 04:11:28;;;;;;;;;;;5.80;89.00;;;;;;5117060;28;20053;-89
2022/11/20 04:13:55;;;;;;;;;;;5.80;89.10;;;;;;5116971;28;19936;-88
2022/11/20 04:16:21;;;;;;;;;;;5.90;89.10;;;;;;5116934;28;19945;-88
2022/11/20 04:18:47;;;;;;;;;;;5.90;89.10;;;;;;5116832;28;20412;-89
2022/11/20 04:21:12;;;;;;;;;;;6.00;88.80;;;;;;5098496;28;19941;-89
2022/11/20 04:23:38;;;;;;;;;;;5.90;88.90;;;;;;5116595;28;20048;-88
2022/11/20 04:26:13;;;;;;;;;;;5.90;89.50;;;;;;5116750;28;20309;-88
2022/11/20 04:28:39;;;;;;;;;;;5.90;89.30;;;;;;5116717;28;19938;-89
2022/11/20 04:31:09;;;;;;;;;;;5.90;89.20;;;;;;5098302;28;19967;-88
2022/11/20 04:33:35;;;;;;;;;;;5.90;89.30;;;;;;5116671;28;20241;-88
2022/11/20 04:36:03;;;;;;;;;;;5.90;89.60;;;;;;5116561;28;19991;-90
2022/11/20 04:38:28;;;;;;;;;;;5.80;89.90;;;;;;5116759;28;19968;-88
2022/11/20 04:40:58;;;;;;;;;;;5.80;90.20;;;;;;5116028;28;19946;-88
2022/11/20 04:43:23;;;;;;;;;;;5.70;90.10;;;;;;5098127;28;20005;-89
2022/11/20 04:45:56;;;;;;;;;;;5.70;89.60;;;;;;5116402;28;19973;-88
2022/11/20 04:48:22;;;;;;;;;;;5.70;89.90;;;;;;5116317;28;19941;-89
2022/11/20 04:50:47;;;;;;;;;;;5.60;90.10;;;;;;5116341;28;19946;-89
2022/11/20 04:53:13;;;;;;;;;;;5.60;90.60;;;;;;5116091;28;19951;-89
2022/11/20 04:55:38;;;;;;;;;;;5.60;90.30;;;;;;5116237;28;20387;-89
2022/11/20 04:58:04;;;;;;;;;;;5.50;90.40;;;;;;5116160;28;20376;-89
2022/11/20 05:00:29;;;;;;;;;;;5.50;90.30;;;;;;5116422;28;19941;-89
2022/11/20 05:02:55;;;;;;;;;;;5.40;90.40;;;;;;5116051;28;19968;-89
2022/11/20 05:05:20;;;;;;;;;;;5.40;90.40;;;;;;5116062;28;19936;-88
2022/11/20 05:07:46;;;;;;;;;;;5.40;90.70;;;;;;5116182;28;19976;-89
2022/11/20 05:10:11;;;;;;;;;;;5.40;90.90;;;;;;5115922;28;20419;-89
2022/11/20 05:12:37;;;;;;;;;;;5.40;91.00;;;;;;5115852;28;20387;-89
2022/11/20 05:15:02;;;;;;;;;;;5.10;90.00;;;;;;5115797;28;20453;-88
2022/11/20 05:17:28;;;;;;;;;;;5.10;89.80;;;;;;5115821;28;20354;-89
2022/11/20 05:19:54;;;;;;;;;;;5.10;88.90;;;;;;5116042;28;20357;-89
2022/11/20 05:22:19;;;;;;;;;;;5.10;87.80;;;;;;5111552;28;19979;-89
2022/11/20 05:24:45;;;;;;;;;;;5.00;87.70;;;;;;5095293;28;19938;-89
2022/11/20 05:27:10;;;;;;;;;;;5.10;88.30;;;;;;5095192;28;20412;-89
2022/11/20 05:29:36;;;;;;;;;;;5.20;88.40;;;;;;5095410;28;19991;-89
2022/11/20 05:32:01;;;;;;;;;;;5.20;89.40;;;;;;5095056;28;19938;-89
2022/11/20 05:34:27;;;;;;;;;;;5.20;89.50;;;;;;5095057;28;19991;-89
2022/11/20 05:36:52;;;;;;;;;;;5.20;89.20;;;;;;5094998;28;20450;-89
2022/11/20 05:39:18;;;;;;;;;;;5.20;89.20;;;;;;5095253;28;19967;-88
2022/11/20 05:41:43;;;;;;;;;;;5.30;89.10;;;;;;5094947;28;20325;-89
2022/11/20 05:44:12;;;;;;;;;;;5.20;89.10;;;;;;5076621;28;20339;-89
2022/11/20 05:46:37;;;;;;;;;;;5.30;89.10;;;;;;5094840;28;19943;-89
2022/11/20 05:49:03;;;;;;;;;;;5.30;89.00;;;;;;5094777;28;20006;-89
2022/11/20 05:51:29;;;;;;;;;;;5.30;88.90;;;;;;5094739;28;20422;-89
2022/11/20 05:53:58;;;;;;;;;;;5.20;88.50;;;;;;5094510;28;19955;-88
2022/11/20 05:56:23;;;;;;;;;;;5.20;88.90;;;;;;5094591;28;19949;-88
2022/11/20 05:58:49;;;;;;;;;;;5.30;88.60;;;;;;5076359;28;19948;-88
2022/11/20 06:01:22;;;;;;;;;;;5.40;88.50;;;;;;5094583;28;19943;-89
2022/11/20 06:03:50;;;;;;;;;;;5.30;88.50;;;;;;5094613;28;19965;-89
2022/11/20 06:06:16;;;;;;;;;;;5.30;88.20;;;;;;5094695;28;19948;-89
2022/11/20 06:08:42;;;;;;;;;;;5.30;88.60;;;;;;5094371;28;19939;-88
2022/11/20 06:11:09;;;;;;;;;;;5.30;88.40;;;;;;5094352;28;20451;-88
2022/11/20 06:13:34;;;;;;;;;;;5.20;88.50;;;;;;5094289;28;20017;-89
2022/11/20 06:16:00;;;;;;;;;;;5.20;88.60;;;;;;5094299;28;20395;-89
2022/11/20 06:18:29;;;;;;;;;;;5.20;88.50;;;;;;5094210;28;19979;-89
2022/11/20 06:21:02;;;;;;;;;;;5.20;88.60;;;;;;5094210;28;20397;-89
2022/11/20 06:23:28;;;;;;;;;;;5.20;88.60;;;;;;5093914;28;19973;-89
2022/11/20 06:25:54;;;;;;;;;;;5.20;88.50;;;;;;5094601;28;19990;-89
2022/11/20 06:28:20;;;;;;;;;;;5.30;88.30;;;;;;5094066;28;19984;-89
2022/11/20 06:30:46;;;;;;;;;;;5.30;88.40;;;;;;5094053;28;19946;-89
2022/11/20 06:33:12;;;;;;;;;;;5.30;88.30;;;;;;5075288;28;19984;-89
2022/11/20 06:35:37;;;;;;;;;;;5.30;88.40;;;;;;5075839;28;19978;-89
2022/11/20 06:38:03;;;;;;;;;;;5.30;88.50;;;;;;5093888;28;20287;-88
2022/11/20 06:40:28;;;;;;;;;;;5.30;88.60;;;;;;5093795;28;19944;-89
2022/11/20 06:42:54;;;;;;;;;;;5.40;88.70;;;;;;5075516;28;19973;-89
2022/11/20 06:45:20;;;;;;;;;;;5.30;88.60;;;;;;5093980;28;20023;-89
2022/11/20 06:47:45;;;;;;;;;;;5.40;88.40;;;;;;5093702;28;19951;-89
2022/11/20 06:50:11;;;;;;;;;;;5.20;88.50;;;;;;5093653;28;19940;-89
2022/11/20 06:52:37;;;;;;;;;;;5.10;88.70;;;;;;5093499;28;19975;-88
2022/11/20 06:55:02;;;;;;;;;;;5.00;89.00;;;;;;5093603;28;19941;-88
2022/11/20 06:57:28;;;;;;;;;;;4.90;89.20;;;;;;5093549;28;19977;-88
2022/11/20 06:59:53;;;;;;;;;;;4.90;89.60;;;;;;5093547;28;19939;-89
2022/11/20 07:02:19;;;;;;;;;;;4.90;89.80;;;;;;5093461;28;19996;-88
2022/11/20 07:04:44;;;;;;;;;;;4.90;89.90;;;;;;5093800;28;19982;-89
2022/11/20 07:07:10;;;;;;;;;;;4.90;90.20;;;;;;5093407;28;19940;-89
2022/11/20 07:09:35;;;;;;;;;;;4.90;90.30;;;;;;5093423;28;19945;-88
2022/11/20 07:12:01;;;;;;;;;;;4.90;90.30;;;;;;5093413;28;19941;-89
2022/11/20 07:14:26;;;;;;;;;;;4.90;90.30;;;;;;5093385;28;19941;-88
2022/11/20 07:16:52;;;;;;;;;;;5.00;90.30;;;;;;5093298;28;19936;-88
2022/11/20 07:19:18;;;;;;;;;;;5.00;90.40;;;;;;5093336;28;20348;-88
2022/11/20 07:21:43;;;;;;;;;;;5.00;90.30;;;;;;5093251;28;19940;-88
2022/11/20 07:24:09;;;;;;;;;;;5.00;90.30;;;;;;5061655;22;19984;-88
2022/11/20 07:26:35;;;;;;;;;;;5.10;90.30;;;;;;5052917;28;20036;-88
2022/11/20 07:29:00;;;;;;;;;;;5.10;90.20;;;;;;5053198;28;19951;-88
2022/11/20 07:31:26;;;;;;;;;;;5.10;90.10;;;;;;5052978;28;20306;-89
2022/11/20 07:33:51;;;;;;;;;;;5.10;90.10;;;;;;5052925;28;19973;-88
2022/11/20 07:36:17;;;;;;;;;;;5.20;90.10;;;;;;5052905;28;20010;-89
2022/11/20 07:38:42;;;;;;;;;;;5.30;90.30;;;;;;5052856;28;20322;-89
2022/11/20 07:41:08;;;;;;;;;;;5.40;90.20;;;;;;5052871;28;20310;-89
2022/11/20 07:43:34;;;;;;;;;;;5.40;89.80;;;;;;5052904;28;19965;-93
2022/11/20 07:45:59;;;;;;;;;;;5.40;89.60;;;;;;5061077;28;19944;-91
2022/11/20 07:48:25;;;;;;;;;;;5.50;89.40;;;;;;5057473;28;20396;-89
2022/11/20 07:50:54;;;;;;;;;;;5.60;89.00;;;;;;5056781;28;19941;-89
2022/11/20 07:53:21;;;;;;;;;;;5.70;88.70;;;;;;5056791;28;19946;-88
2022/11/20 07:55:47;;;;;;;;;;;5.70;88.20;;;;;;5056700;28;20420;-88
2022/11/20 07:58:13;;;;;;;;;;;5.80;88.00;;;;;;5056705;28;19943;-89
2022/11/20 08:00:39;;;;;;;;;;;5.90;87.90;;;;;;5056627;28;19989;-88
2022/11/20 08:03:05;;;;;;;;;;;6.00;88.20;;;;;;5056494;28;19960;-89
2022/11/20 08:05:30;;;;;;;;;;;6.00;88.30;;;;;;5056494;28;20063;-89
2022/11/20 08:07:56;;;;;;;;;;;6.00;88.40;;;;;;5056484;28;20036;-88
2022/11/20 08:10:21;;;;;;;;;;;6.10;87.80;;;;;;5056459;28;20219;-89
2022/11/20 08:15:35;;;;;;;;;;;6.30;87.70;;;;;;5056659;28;19983;-89
2022/11/20 08:18:01;;;;;;;;;;;6.50;87.50;;;;;;5056329;28;19934;-89
2022/11/20 08:20:28;;;;;;;;;;;6.60;87.50;;;;;;5056563;28;19945;-88
2022/11/20 08:22:57;;;;;;;;;;;6.70;87.40;;;;;;5056458;28;19957;-88
2022/11/20 08:25:22;;;;;;;;;;;6.90;87.60;;;;;;5055673;28;19929;-88
2022/11/20 08:27:48;;;;;;;;;;;7.20;87.10;;;;;;5055766;28;20026;-88
2022/11/20 08:30:13;;;;;;;;;;;7.40;86.00;;;;;;5055546;28;20450;-88
2022/11/20 08:32:39;;;;;;;;;;;7.60;85.50;;;;;;5055555;28;20386;-89
2022/11/20 08:35:05;;;;;;;;;;;7.70;84.90;;;;;;5055074;28;19945;-89
2022/11/20 08:37:30;;;;;;;;;;;7.80;84.90;;;;;;5055674;28;19984;-89
2022/11/20 08:39:56;;;;;;;;;;;7.90;85.10;;;;;;5055660;28;19934;-89
2022/11/20 08:42:22;;;;;;;;;;;8.10;84.40;;;;;;5055456;28;19938;-89
2022/11/20 08:44:47;;;;;;;;;;;8.10;84.30;;;;;;5055548;28;19933;-89
2022/11/20 08:47:13;;;;;;;;;;;8.20;84.50;;;;;;5055416;28;20288;-89
2022/11/20 08:49:38;;;;;;;;;;;8.40;83.80;;;;;;5055407;28;20474;-89
2022/11/20 08:52:04;;;;;;;;;;;8.70;83.00;;;;;;5053979;28;19937;-89
2022/11/20 08:54:29;;;;;;;;;;;8.80;82.50;;;;;;5055230;28;19961;-89
2022/11/20 08:56:55;;;;;;;;;;;8.90;82.90;;;;;;5054957;28;20342;-89
2022/11/20 08:59:21;;;;;;;;;;;9.10;82.60;;;;;;5053948;28;20293;-89
2022/11/20 09:01:46;;;;;;;;;;;9.20;81.50;;;;;;5055302;28;19936;-89
2022/11/20 09:04:14;;;;;;;;;;;9.40;80.60;;;;;;5055130;28;19981;-89
2022/11/20 09:06:39;;;;;;;;;;;9.50;80.10;;;;;;5055199;28;19938;-89
2022/11/20 09:09:05;;;;;;;;;;;9.70;80.00;;;;;;5055101;28;19935;-89
2022/11/20 09:11:31;;;;;;;;;;;9.90;79.60;;;;;;5055079;28;19943;-89
2022/11/20 09:13:57;;;;;;;;;;;9.90;79.70;;;;;;5055003;28;20392;-89
2022/11/20 09:16:22;;;;;;;;;;;9.90;79.10;;;;;;5055014;28;20024;-89
2022/11/20 09:18:49;;;;;;;;;;;10.10;78.90;;;;;;5054970;28;20109;-89
2022/11/20 09:21:15;;;;;;;;;;;10.20;78.60;;;;;;5054910;28;19930;-89
2022/11/20 09:23:40;;;;;;;;;;;10.30;79.00;;;;;;5054680;28;19948;-89
2022/11/20 09:26:13;;;;;;;;;;;10.40;79.00;;;;;;5054873;28;20474;-89
2022/11/20 09:28:38;;;;;;;;;;;10.40;79.00;;;;;;5054746;28;19963;-89
2022/11/20 09:31:05;;;;;;;;;;;10.60;79.00;;;;;;5054722;28;19937;-89
2022/11/20 09:33:30;;;;;;;;;;;10.70;77.90;;;;;;5054706;28;19941;-89
2022/11/20 09:35:56;;;;;;;;;;;10.80;78.10;;;;;;5054647;28;19935;-89
2022/11/20 09:38:23;;;;;;;;;;;11.00;78.10;;;;;;5054517;28;19930;-89
2022/11/20 09:40:56;;;;;;;;;;;11.10;78.50;;;;;;5054538;28;19938;-89
2022/11/20 09:43:24;;;;;;;;;;;11.20;78.30;;;;;;5053147;28;19973;-89
2022/11/20 09:45:57;;;;;;;;;;;11.20;78.00;;;;;;5054456;28;19934;-89
2022/11/20 09:48:36;;;;;;;;;;;11.30;77.50;;;;;;5053038;28;19964;-88
2022/11/20 09:51:22;;;;;;;;;;;11.40;76.90;;;;;;5054562;28;19930;-89
2022/11/20 09:54:06;;;;;;;;;;;11.60;75.50;;;;;;5043277;28;19944;-90
2022/11/20 09:56:33;;;;;;;;;;;11.80;75.00;;;;;;5054209;28;20025;-89
2022/11/20 09:59:02;;;;;;;;;;;12.10;74.20;;;;;;5054203;28;20042;-89
2022/11/20 10:01:31;;;;;;;;;;;12.10;73.80;;;;;;5054170;28;19956;-89
2022/11/20 10:04:22;;;;;;;;;;;12.20;75.00;;;;;;5054046;28;20395;-90
2022/11/20 10:07:17;;;;;;;;;;;12.40;74.40;;;;;;5049980;28;20387;-89
2022/11/20 10:09:54;;;;;;;;;;;12.40;74.10;;;;;;5040925;28;20186;-89
2022/11/20 10:12:37;;;;;;;;;;;12.60;74.20;;;;;;5053904;28;19938;-90
2022/11/20 10:15:05;;;;;;;;;;;12.70;74.10;;;;;;5053815;28;20381;-89
2022/11/20 10:17:38;;;;;;;;;;;12.90;72.70;;;;;;5053833;28;20448;-89
2022/11/20 10:20:16;;;;;;;;;;;12.90;72.20;;;;;;5053773;28;19934;-89
2022/11/20 10:22:53;;;;;;;;;;;12.90;71.60;;;;;;5053587;28;19984;-89
2022/11/20 10:25:20;;;;;;;;;;;12.90;72.50;;;;;;5053665;28;19940;-88
2022/11/20 10:28:16;;;;;;;;;;;13.10;73.40;;;;;;5053881;28;19933;-89
2022/11/20 10:30:43;;;;;;;;;;;13.10;72.90;;;;;;5040394;28;19958;-90
2022/11/20 10:33:15;;;;;;;;;;;13.10;70.70;;;;;;5053484;28;20057;-89
2022/11/20 10:35:49;;;;;;;;;;;13.20;71.00;;;;;;5053435;28;19929;-89
2022/11/20 10:38:20;;;;;;;;;;;13.20;70.60;;;;;;5053416;28;20001;-89
2022/11/20 10:40:48;;;;;;;;;;;13.30;68.80;;;;;;5053324;28;19931;-89
2022/11/20 10:43:33;;;;;;;;;;;13.30;71.00;;;;;;5053136;28;19940;-89
2022/11/20 10:46:00;;;;;;;;;;;13.50;69.40;;;;;;5053194;28;19936;-89
2022/11/20 10:48:26;;;;;;;;;;;13.60;71.80;;;;;;5053456;28;19950;-89
2022/11/20 10:51:11;;;;;;;;;;;13.70;70.30;;;;;;5053112;28;19938;-89
2022/11/20 10:53:46;;;;;;;;;;;13.80;70.40;;;;;;5052868;28;19998;-89
2022/11/20 10:56:17;;;;;;;;;;;13.80;70.30;;;;;;5053150;28;20114;-89
2022/11/20 10:59:09;;;;;;;;;;;13.90;69.20;;;;;;5053096;28;19930;-89
2022/11/20 11:01:39;;;;;;;;;;;14.00;68.20;;;;;;5049883;28;19937;-89
2022/11/20 11:04:15;;;;;;;;;;;14.10;67.40;;;;;;5052905;28;19938;-89
2022/11/20 11:06:43;;;;;;;;;;;14.10;66.60;;;;;;5052989;28;19938;-88
2022/11/20 11:09:13;;;;;;;;;;;14.10;62.70;;;;;;5052998;28;19940;-89
2022/11/20 11:11:38;;;;;;;;;;;14.10;63.70;;;;;;5052894;28;19934;-89
2022/11/20 11:14:14;;;;;;;;;;;14.30;63.00;;;;;;5053094;28;19968;-89
2022/11/20 11:16:50;;;;;;;;;;;14.20;61.80;;;;;;5052865;28;19929;-89
2022/11/20 11:19:16;;;;;;;;;;;14.20;61.20;;;;;;5052598;28;20361;-89
2022/11/20 11:21:54;;;;;;;;;;;14.20;61.00;;;;;;5052715;28;19939;-90
2022/11/20 11:24:24;;;;;;;;;;;14.10;61.50;;;;;;5052732;28;19977;-89
2022/11/20 11:26:52;;;;;;;;;;;14.20;62.50;;;;;;5052755;28;19934;-89
2022/11/20 11:29:18;;;;;;;;;;;14.30;61.10;;;;;;5052686;28;19929;-89
2022/11/20 11:31:43;;;;;;;;;;;14.30;61.50;;;;;;5052669;28;20319;-89
2022/11/20 11:34:15;;;;;;;;;;;14.40;62.40;;;;;;5052656;28;19939;-89
2022/11/20 11:36:42;;;;;;;;;;;14.70;60.30;;;;;;5052641;28;19983;-89
2022/11/20 11:39:19;;;;;;;;;;;14.80;59.80;;;;;;5052584;28;19963;-89
2022/11/20 11:41:45;;;;;;;;;;;14.90;59.50;;;;;;5052606;28;19932;-89
2022/11/20 11:47:04;;;;;;;;;;;15.20;57.50;;;;;;5052862;28;19943;-90
2022/11/20 11:49:30;;;;;;;;;;;15.70;57.20;;;;;;5052510;28;19984;-90
2022/11/20 11:52:05;;;;;;;;;;;16.00;55.60;;;;;;5052417;28;19926;-89
2022/11/20 11:54:33;;;;;;;;;;;16.00;57.50;;;;;;5052411;28;20326;-89
2022/11/20 11:57:00;;;;;;;;;;;16.10;55.40;;;;;;5052509;28;19934;-90
2022/11/20 11:59:28;;;;;;;;;;;16.30;56.50;;;;;;5052462;28;20317;-90
2022/11/20 12:01:57;;;;;;;;;;;16.20;56.00;;;;;;5052405;28;19939;-89
2022/11/20 12:04:42;;;;;;;;;;;16.30;53.90;;;;;;5052324;28;20026;-89
2022/11/20 12:07:11;;;;;;;;;;;16.30;55.70;;;;;;5052344;28;19986;-89
2022/11/20 12:09:43;;;;;;;;;;;16.50;55.20;;;;;;5052625;28;19930;-89
2022/11/20 12:12:11;;;;;;;;;;;16.60;54.70;;;;;;5052224;28;19936;-90
2022/11/20 12:14:37;;;;;;;;;;;16.50;54.40;;;;;;5052539;28;19935;-89
2022/11/20 12:17:03;;;;;;;;;;;16.70;52.40;;;;;;5052239;28;19931;-90
2022/11/20 12:19:33;;;;;;;;;;;17.20;52.50;;;;;;5052288;28;19933;-90
2022/11/20 12:22:17;;;;;;;;;;;16.80;52.80;;;;;;5052483;28;19980;-89
2022/11/20 12:24:58;;;;;;;;;;;17.10;54.20;;;;;;5052067;28;19942;-90
2022/11/20 12:27:36;;;;;;;;;;;17.30;51.60;;;;;;5052160;28;19929;-89
2022/11/20 12:30:12;;;;;;;;;;;17.30;50.90;;;;;;5052614;28;20033;-89
2022/11/20 12:32:40;;;;;;;;;;;17.40;50.30;;;;;;5055849;28;19937;-89
2022/11/20 12:35:24;;;;;;;;;;;16.90;49.70;;;;;;5055758;28;19935;-89
2022/11/20 12:37:59;;;;;;;;;;;17.00;50.30;;;;;;5055928;28;19939;-89
2022/11/20 12:40:33;;;;;;;;;;;16.80;50.60;;;;;;5055668;28;19980;-88
2022/11/20 12:46:03;;;;;;;;;;;17.00;50.50;;;;;;5055490;28;19937;-88
2022/11/20 12:48:41;;;;;;;;;;;16.90;50.60;;;;;;5055466;28;19936;-89
2022/11/20 12:51:27;;;;;;;;;;;17.00;50.00;;;;;;5055446;28;19944;-89
2022/11/20 12:53:56;;;;;;;;;;;16.90;50.40;;;;;;5054626;28;19931;-89
2022/11/20 12:56:24;;;;;;;;;;;17.00;50.10;;;;;;5055311;28;19998;-90
2022/11/20 12:58:59;;;;;;;;;;;17.30;51.60;;;;;;5055303;28;20001;-89
2022/11/20 13:01:47;;;;;;;;;;;17.30;50.00;;;;;;5055237;28;19927;-89
2022/11/20 13:04:16;;;;;;;;;;;17.00;51.40;;;;;;5055109;28;19963;-90
2022/11/20 13:06:42;;;;;;;;;;;16.70;51.90;;;;;;5055134;28;19975;-89
2022/11/20 13:09:10;;;;;;;;;;;16.60;51.40;;;;;;5055111;28;19935;-90
2022/11/20 13:11:55;;;;;;;;;;;17.30;50.40;;;;;;5055076;28;19935;-90
2022/11/20 13:14:31;;;;;;;;;;;17.40;48.80;;;;;;5054924;28;19936;-90
2022/11/20 13:17:11;;;;;;;;;;;17.60;50.80;;;;;;5055001;28;20385;-90
2022/11/20 13:19:37;;;;;;;;;;;18.00;48.20;;;;;;5054926;28;19984;-89
2022/11/20 13:22:02;;;;;;;;;;;18.10;47.70;;;;;;5054715;28;19982;-90
2022/11/20 13:24:29;;;;;;;;;;;17.80;49.10;;;;;;5054820;28;19949;-89
2022/11/20 13:27:01;;;;;;;;;;;17.60;48.90;;;;;;5054840;28;19935;-90
2022/11/20 13:29:27;;;;;;;;;;;17.70;49.60;;;;;;5054714;28;20013;-90
2022/11/20 13:32:01;;;;;;;;;;;17.90;49.70;;;;;;5054649;28;19931;-90
2022/11/20 13:34:27;;;;;;;;;;;18.10;48.30;;;;;;5054706;28;19933;-89
2022/11/20 13:36:54;;;;;;;;;;;18.30;46.80;;;;;;5054924;28;20355;-89
2022/11/20 13:39:30;;;;;;;;;;;18.50;46.60;;;;;;5057707;28;19946;-90
2022/11/20 13:41:58;;;;;;;;;;;18.60;47.20;;;;;;5074551;28;19964;-89
2022/11/20 13:44:35;;;;;;;;;;;18.30;48.00;;;;;;5074705;28;20016;-89
2022/11/20 13:47:00;;;;;;;;;;;18.30;47.20;;;;;;5074703;28;19936;-89
2022/11/20 13:49:28;;;;;;;;;;;18.00;48.70;;;;;;5073181;28;20313;-90
2022/11/20 13:52:12;;;;;;;;;;;17.90;48.40;;;;;;5074248;28;19970;-89
2022/11/20 13:54:38;;;;;;;;;;;17.70;49.10;;;;;;5074237;28;19939;-89
2022/11/20 13:57:03;;;;;;;;;;;17.30;50.00;;;;;;5074232;28;20330;-89
2022/11/20 13:59:39;;;;;;;;;;;17.20;51.70;;;;;;5074209;28;19934;-89
2022/11/20 14:02:10;;;;;;;;;;;17.30;50.50;;;;;;5074152;28;19940;-89
2022/11/20 14:04:37;;;;;;;;;;;17.40;51.60;;;;;;5074013;28;19935;-89
2022/11/20 14:07:06;;;;;;;;;;;17.40;50.70;;;;;;5074073;28;19938;-89
2022/11/20 14:09:32;;;;;;;;;;;17.80;50.40;;;;;;5072530;28;19931;-89
2022/11/20 14:11:58;;;;;;;;;;;18.20;48.70;;;;;;5074000;28;19933;-89
2022/11/20 14:14:25;;;;;;;;;;;18.30;49.70;;;;;;5073674;28;19942;-89
2022/11/20 14:16:50;;;;;;;;;;;18.40;48.80;;;;;;5072663;28;19940;-90
2022/11/20 14:19:19;;;;;;;;;;;18.30;49.10;;;;;;5073818;28;19936;-89
2022/11/20 14:21:45;;;;;;;;;;;18.20;49.40;;;;;;5073763;28;19953;-89
2022/11/20 14:24:11;;;;;;;;;;;18.20;49.00;;;;;;5073469;28;19942;-89
2022/11/20 14:26:46;;;;;;;;;;;18.30;50.00;;;;;;5074008;28;19938;-89
2022/11/20 14:29:19;;;;;;;;;;;18.20;48.90;;;;;;5073602;28;19937;-89
2022/11/20 14:31:45;;;;;;;;;;;18.00;49.90;;;;;;5073547;28;20013;-90
2022/11/20 14:34:19;;;;;;;;;;;17.80;52.20;;;;;;5073529;28;20002;-90
2022/11/20 14:36:44;;;;;;;;;;;17.60;50.80;;;;;;5073456;28;19938;-89
2022/11/20 14:39:25;;;;;;;;;;;17.50;51.20;;;;;;5073440;28;19932;-89
2022/11/20 14:41:51;;;;;;;;;;;17.20;51.90;;;;;;5073617;28;19935;-89